Time;durP1;ratioP1;P1;durP2;ratioP2;P2;SDS_P1;SDS_P2;PMS_P1;PMS_P2;Temp;Humidity;BMP_temperature;BMP_pressure;BME280_temperature;BME280_humidity;BME280_pressure;Samples;Min_cycle;Max_cycle;Signal;HPM_P1;HPM_P2
2023/10/25 00:01:00;;;;;;;6.82;4.07;;;;;;;;;;5112402;28;20491;-53
2023/10/25 00:03:27;;;;;;;6.70;4.13;;;;;;;;;;5111983;28;20127;-50
2023/10/25 00:05:53;;;;;;;6.18;3.55;;;;;;;;;;5104348;28;20044;-55
2023/10/25 00:08:20;;;;;;;6.78;3.88;;;;;;;;;;5112469;28;20042;-50
2023/10/25 00:10:48;;;;;;;6.85;4.03;;;;;;;;;;5112557;28;20391;-51
2023/10/25 00:13:15;;;;;;;6.60;4.75;;;;;;;;;;5104451;28;20409;-50
2023/10/25 00:15:41;;;;;;;6.63;3.88;;;;;;;;;;5111620;28;20040;-48
2023/10/25 00:18:08;;;;;;;6.70;4.03;;;;;;;;;;5111660;28;20463;-54
2023/10/25 00:20:35;;;;;;;5.93;4.13;;;;;;;;;;5107483;28;20130;-54
2023/10/25 00:23:01;;;;;;;6.57;3.90;;;;;;;;;;5112194;28;20389;-53
2023/10/25 00:25:28;;;;;;;8.80;5.00;;;;;;;;;;5112391;28;20551;-51
2023/10/25 00:27:56;;;;;;;6.70;4.13;;;;;;;;;;5112431;28;20047;-52
2023/10/25 00:30:23;;;;;;;6.32;3.83;;;;;;;;;;5112564;28;20043;-51
2023/10/25 00:32:49;;;;;;;5.53;4.00;;;;;;;;;;5103227;28;20170;-52
2023/10/25 00:35:16;;;;;;;7.00;4.40;;;;;;;;;;5104578;28;20050;-51
2023/10/25 00:37:42;;;;;;;7.35;4.47;;;;;;;;;;5112311;28;20379;-51
2023/10/25 00:40:10;;;;;;;6.05;3.92;;;;;;;;;;5096750;28;20138;-52
2023/10/25 00:42:36;;;;;;;6.63;4.10;;;;;;;;;;5111469;28;20102;-51
2023/10/25 00:45:05;;;;;;;6.38;4.00;;;;;;;;;;5111257;28;20079;-50
2023/10/25 00:47:32;;;;;;;6.10;3.70;;;;;;;;;;5112096;28;20570;-50
2023/10/25 00:49:59;;;;;;;6.47;4.47;;;;;;;;;;5112067;28;20387;-54
2023/10/25 00:52:26;;;;;;;6.13;3.85;;;;;;;;;;5103247;28;20051;-52
2023/10/25 00:54:53;;;;;;;9.68;4.63;;;;;;;;;;5095389;28;20075;-51
2023/10/25 00:57:20;;;;;;;7.55;4.20;;;;;;;;;;5103509;28;20069;-53
2023/10/25 00:59:47;;;;;;;6.45;3.95;;;;;;;;;;5103388;28;20545;-52
2023/10/25 01:02:15;;;;;;;6.60;4.30;;;;;;;;;;5095551;28;20134;-52
2023/10/25 01:04:42;;;;;;;6.10;3.90;;;;;;;;;;5111440;28;20039;-51
2023/10/25 01:07:08;;;;;;;5.93;4.07;;;;;;;;;;5108169;28;20079;-52
2023/10/25 01:09:35;;;;;;;6.80;4.05;;;;;;;;;;5099387;28;20411;-50
2023/10/25 01:12:02;;;;;;;6.20;3.85;;;;;;;;;;5111402;28;20516;-49
2023/10/25 01:14:31;;;;;;;6.28;3.55;;;;;;;;;;5110701;28;20051;-50
2023/10/25 01:16:58;;;;;;;5.47;3.80;;;;;;;;;;5108188;28;20051;-53
2023/10/25 01:19:26;;;;;;;5.53;3.42;;;;;;;;;;5111021;28;20071;-49
2023/10/25 01:21:54;;;;;;;5.53;3.03;;;;;;;;;;5101877;28;20090;-53
2023/10/25 01:24:23;;;;;;;4.57;3.10;;;;;;;;;;5104425;28;20047;-51
2023/10/25 01:26:49;;;;;;;4.85;3.00;;;;;;;;;;5103320;28;20048;-50
2023/10/25 01:29:16;;;;;;;5.30;3.22;;;;;;;;;;5110302;28;20044;-52
2023/10/25 01:31:42;;;;;;;4.88;3.40;;;;;;;;;;5103327;28;20143;-51
2023/10/25 01:34:09;;;;;;;4.55;3.03;;;;;;;;;;5104059;28;20302;-51
2023/10/25 01:36:36;;;;;;;5.70;2.95;;;;;;;;;;5110887;28;20040;-50
2023/10/25 01:39:02;;;;;;;4.97;3.00;;;;;;;;;;5111671;28;20047;-51
2023/10/25 01:41:30;;;;;;;4.80;3.08;;;;;;;;;;5110797;28;20112;-55
2023/10/25 01:43:57;;;;;;;4.85;2.83;;;;;;;;;;5111636;28;20147;-50
2023/10/25 01:46:25;;;;;;;4.88;3.00;;;;;;;;;;5111600;28;20047;-51
2023/10/25 01:48:52;;;;;;;5.95;3.15;;;;;;;;;;5094398;28;20525;-49
2023/10/25 01:51:18;;;;;;;4.72;2.70;;;;;;;;;;5111453;28;20046;-53
2023/10/25 01:53:45;;;;;;;5.45;3.10;;;;;;;;;;5103384;28;20079;-48
2023/10/25 01:56:12;;;;;;;4.85;3.13;;;;;;;;;;5103093;28;20090;-51
2023/10/25 01:58:39;;;;;;;4.43;2.90;;;;;;;;;;5102733;28;20472;-48
2023/10/25 02:01:07;;;;;;;4.88;3.15;;;;;;;;;;5095240;28;20410;-51
2023/10/25 02:03:34;;;;;;;4.95;3.00;;;;;;;;;;5110492;28;20048;-50
2023/10/25 02:06:10;;;;;;;4.57;2.60;;;;;;;;;;5115312;28;20039;-55
2023/10/25 02:08:37;;;;;;;5.03;2.78;;;;;;;;;;5115149;28;20069;-55
2023/10/25 02:11:03;;;;;;;5.05;2.95;;;;;;;;;;5115149;28;20529;-52
2023/10/25 02:13:30;;;;;;;4.28;2.80;;;;;;;;;;5110482;27;20048;-57
2023/10/25 02:15:58;;;;;;;4.57;2.70;;;;;;;;;;5111120;27;20044;-53
2023/10/25 02:18:25;;;;;;;6.13;3.50;;;;;;;;;;5113434;28;20071;-53
2023/10/25 02:20:51;;;;;;;4.65;2.90;;;;;;;;;;5114026;28;20079;-52
2023/10/25 02:23:18;;;;;;;5.68;3.40;;;;;;;;;;5113557;28;20079;-53
2023/10/25 02:25:45;;;;;;;5.50;2.80;;;;;;;;;;5114035;28;20043;-56
2023/10/25 02:28:12;;;;;;;4.80;2.75;;;;;;;;;;5098297;28;20482;-53
2023/10/25 02:30:39;;;;;;;5.10;3.08;;;;;;;;;;5114667;28;20052;-53
2023/10/25 02:33:07;;;;;;;4.53;2.80;;;;;;;;;;5113485;28;20051;-50
2023/10/25 02:35:33;;;;;;;4.78;2.53;;;;;;;;;;5099272;28;20080;-51
2023/10/25 02:38:00;;;;;;;4.75;2.85;;;;;;;;;;5111034;28;20083;-57
2023/10/25 02:40:27;;;;;;;5.13;2.50;;;;;;;;;;5094375;28;20079;-51
2023/10/25 02:42:53;;;;;;;5.38;2.78;;;;;;;;;;5094967;28;20040;-53
2023/10/25 02:45:20;;;;;;;5.68;3.42;;;;;;;;;;5113613;28;20046;-49
2023/10/25 02:47:46;;;;;;;4.68;2.67;;;;;;;;;;5114425;28;20119;-55
2023/10/25 02:50:15;;;;;;;7.03;3.28;;;;;;;;;;5114972;28;20047;-50
2023/10/25 02:52:46;;;;;;;5.00;3.08;;;;;;;;;;5114485;28;20066;-52
2023/10/25 02:55:13;;;;;;;5.60;2.95;;;;;;;;;;5106459;28;20530;-51
2023/10/25 02:57:39;;;;;;;5.03;3.05;;;;;;;;;;5106670;28;20076;-52
2023/10/25 03:00:07;;;;;;;5.50;2.75;;;;;;;;;;5114208;28;20131;-50
2023/10/25 03:02:34;;;;;;;4.25;2.92;;;;;;;;;;5106916;28;20084;-50
2023/10/25 03:05:01;;;;;;;4.20;2.60;;;;;;;;;;5112164;28;20083;-51
2023/10/25 03:07:29;;;;;;;4.63;2.95;;;;;;;;;;5113329;28;20135;-58
2023/10/25 03:09:56;;;;;;;4.40;2.60;;;;;;;;;;5105420;28;20123;-56
2023/10/25 03:12:23;;;;;;;5.85;2.80;;;;;;;;;;5109297;28;20358;-50
2023/10/25 03:14:49;;;;;;;5.05;3.10;;;;;;;;;;5104704;28;20044;-55
2023/10/25 03:17:16;;;;;;;8.68;4.07;;;;;;;;;;5113776;28;20065;-55
2023/10/25 03:19:43;;;;;;;5.75;3.25;;;;;;;;;;5114094;28;20130;-49
2023/10/25 03:22:09;;;;;;;5.93;3.50;;;;;;;;;;5101947;28;20529;-52
2023/10/25 03:24:37;;;;;;;4.82;2.72;;;;;;;;;;5093151;28;20048;-51
2023/10/25 03:27:07;;;;;;;9.40;2.88;;;;;;;;;;5112706;28;20131;-50
2023/10/25 03:29:35;;;;;;;5.20;2.92;;;;;;;;;;5113533;28;20054;-50
2023/10/25 03:32:02;;;;;;;4.50;2.70;;;;;;;;;;5113371;28;20052;-50
2023/10/25 03:34:29;;;;;;;5.20;2.90;;;;;;;;;;5109659;28;20140;-49
2023/10/25 03:36:55;;;;;;;5.35;3.10;;;;;;;;;;5103293;28;20139;-52
2023/10/25 03:39:22;;;;;;;5.82;3.20;;;;;;;;;;5093061;28;20090;-49
2023/10/25 03:41:50;;;;;;;6.35;3.45;;;;;;;;;;5092712;28;20086;-49
2023/10/25 03:44:17;;;;;;;5.95;3.70;;;;;;;;;;5105435;28;20050;-51
2023/10/25 03:46:43;;;;;;;6.82;3.00;;;;;;;;;;5105229;28;20040;-53
2023/10/25 03:49:10;;;;;;;5.82;2.90;;;;;;;;;;5101269;28;20196;-53
2023/10/25 03:51:37;;;;;;;4.35;2.65;;;;;;;;;;5108521;28;20047;-50
2023/10/25 03:54:04;;;;;;;5.50;3.17;;;;;;;;;;5112744;28;20131;-52
2023/10/25 03:56:30;;;;;;;6.10;2.90;;;;;;;;;;5113041;28;20083;-54
2023/10/25 03:58:58;;;;;;;5.85;2.85;;;;;;;;;;5112900;28;20105;-53
2023/10/25 04:01:25;;;;;;;5.32;3.25;;;;;;;;;;5107318;28;20095;-52
2023/10/25 04:03:52;;;;;;;5.30;2.63;;;;;;;;;;5101635;28;20118;-50
2023/10/25 04:06:18;;;;;;;5.65;3.42;;;;;;;;;;5099594;28;20044;-52
2023/10/25 04:08:45;;;;;;;5.40;3.50;;;;;;;;;;5109174;28;20623;-53
2023/10/25 04:11:12;;;;;;;5.70;3.10;;;;;;;;;;5112525;28;20131;-52
2023/10/25 04:13:39;;;;;;;4.60;2.58;;;;;;;;;;5096558;28;20139;-53
2023/10/25 04:16:09;;;;;;;4.50;2.70;;;;;;;;;;5104251;28;20091;-52
2023/10/25 04:18:36;;;;;;;4.70;2.20;;;;;;;;;;5112306;28;20101;-50
2023/10/25 04:21:03;;;;;;;6.40;2.70;;;;;;;;;;5101432;28;20083;-51
2023/10/25 04:23:31;;;;;;;5.07;2.65;;;;;;;;;;5106575;28;20048;-50
2023/10/25 04:26:04;;;;;;;4.88;2.80;;;;;;;;;;5112430;28;20547;-51
2023/10/25 04:28:31;;;;;;;4.82;2.92;;;;;;;;;;5101586;28;20043;-55
2023/10/25 04:30:58;;;;;;;7.15;3.17;;;;;;;;;;5109345;28;20098;-49
2023/10/25 04:33:26;;;;;;;5.05;2.92;;;;;;;;;;5111598;28;20392;-49
2023/10/25 04:35:53;;;;;;;4.57;2.65;;;;;;;;;;5112086;28;20040;-53
2023/10/25 04:38:19;;;;;;;5.20;2.60;;;;;;;;;;5098793;28;20070;-52
2023/10/25 04:40:46;;;;;;;4.97;2.70;;;;;;;;;;5100553;28;20071;-55
2023/10/25 04:43:13;;;;;;;5.50;2.67;;;;;;;;;;5108591;28;20102;-48
2023/10/25 04:45:39;;;;;;;5.85;2.58;;;;;;;;;;5091740;28;20083;-50
2023/10/25 04:48:06;;;;;;;5.25;2.85;;;;;;;;;;5110284;28;20450;-50
2023/10/25 04:50:37;;;;;;;4.90;3.33;;;;;;;;;;5111935;28;20047;-50
2023/10/25 04:53:03;;;;;;;;;;;;;;;;;;5112426;28;20054;-49
2023/10/25 04:55:31;;;;;;;7.55;3.10;;;;;;;;;;5112621;28;19975;-50
2023/10/25 04:57:58;;;;;;;4.68;2.65;;;;;;;;;;5112059;28;20051;-49
2023/10/25 05:00:25;;;;;;;4.50;2.47;;;;;;;;;;5098475;28;20106;-50
2023/10/25 05:02:51;;;;;;;5.13;2.80;;;;;;;;;;5108679;28;20079;-50
2023/10/25 05:05:18;;;;;;;4.68;2.90;;;;;;;;;;5096358;28;20047;-49
2023/10/25 05:07:47;;;;;;;4.15;2.45;;;;;;;;;;5112363;28;20527;-51
2023/10/25 05:10:14;;;;;;;4.05;2.50;;;;;;;;;;5100483;28;20123;-49
2023/10/25 05:12:42;;;;;;;4.50;2.60;;;;;;;;;;5091717;28;20123;-50
2023/10/25 05:15:10;;;;;;;5.97;3.20;;;;;;;;;;5103452;28;20286;-49
2023/10/25 05:17:39;;;;;;;5.20;2.70;;;;;;;;;;5112146;28;20090;-51
2023/10/25 05:20:08;;;;;;;6.38;3.03;;;;;;;;;;5111864;28;20054;-55
2023/10/25 05:22:36;;;;;;;4.32;2.58;;;;;;;;;;5112110;28;20079;-50
2023/10/25 05:25:06;;;;;;;4.78;2.88;;;;;;;;;;5100804;28;20079;-48
2023/10/25 05:27:34;;;;;;;4.57;2.50;;;;;;;;;;5107097;28;20072;-50
2023/10/25 05:30:03;;;;;;;6.85;3.22;;;;;;;;;;5114364;28;20127;-52
2023/10/25 05:32:31;;;;;;;5.28;2.88;;;;;;;;;;5114567;28;20054;-50
2023/10/25 05:34:58;;;;;;;4.28;2.72;;;;;;;;;;5112614;28;20114;-49
2023/10/25 05:37:25;;;;;;;5.10;2.95;;;;;;;;;;5116166;28;20109;-52
2023/10/25 05:39:53;;;;;;;6.32;3.25;;;;;;;;;;5116053;28;20211;-54
2023/10/25 05:42:22;;;;;;;6.35;3.90;;;;;;;;;;5115997;28;20069;-53
2023/10/25 05:44:51;;;;;;;7.15;4.35;;;;;;;;;;5115713;28;20391;-52
2023/10/25 05:47:17;;;;;;;7.90;4.03;;;;;;;;;;5115766;28;20409;-51
2023/10/25 05:49:45;;;;;;;5.88;3.17;;;;;;;;;;5107510;28;20129;-49
2023/10/25 05:52:12;;;;;;;5.18;2.95;;;;;;;;;;5106927;28;20079;-51
2023/10/25 05:54:39;;;;;;;5.90;2.95;;;;;;;;;;5111477;28;20565;-50
2023/10/25 05:57:07;;;;;;;7.97;3.22;;;;;;;;;;5114111;28;20090;-49
2023/10/25 05:59:36;;;;;;;5.30;3.50;;;;;;;;;;5113982;28;20065;-52
2023/10/25 06:02:08;;;;;;;6.25;3.97;;;;;;;;;;5115645;28;20075;-49
2023/10/25 06:04:37;;;;;;;6.88;3.85;;;;;;;;;;5115281;28;20082;-51
2023/10/25 06:07:05;;;;;;;6.63;3.85;;;;;;;;;;5115283;28;20537;-54
2023/10/25 06:09:32;;;;;;;5.97;3.55;;;;;;;;;;5100679;28;20558;-50
2023/10/25 06:11:59;;;;;;;6.35;3.78;;;;;;;;;;5105270;28;20499;-49
2023/10/25 06:14:28;;;;;;;6.45;3.92;;;;;;;;;;5115239;28;20130;-55
2023/10/25 06:16:56;;;;;;;6.95;4.00;;;;;;;;;;5115449;28;20138;-51
2023/10/25 06:19:23;;;;;;;6.25;3.30;;;;;;;;;;5108990;28;20446;-52
2023/10/25 06:21:50;;;;;;;5.65;3.35;;;;;;;;;;5115241;28;20123;-54
2023/10/25 06:24:16;;;;;;;6.82;4.00;;;;;;;;;;5114906;28;20122;-53
2023/10/25 06:26:43;;;;;;;6.65;3.90;;;;;;;;;;5113660;28;20044;-54
2023/10/25 06:29:10;;;;;;;6.00;3.20;;;;;;;;;;5111478;28;20105;-50
2023/10/25 06:31:36;;;;;;;6.05;3.53;;;;;;;;;;5111648;28;20130;-50
2023/10/25 06:34:05;;;;;;;7.00;3.35;;;;;;;;;;5110984;28;20044;-55
2023/10/25 06:36:32;;;;;;;8.55;4.15;;;;;;;;;;5105797;28;20047;-53
2023/10/25 06:39:04;;;;;;;6.13;3.90;;;;;;;;;;5110782;28;20063;-55
2023/10/25 06:41:32;;;;;;;7.68;3.80;;;;;;;;;;5113516;27;20040;-49
2023/10/25 06:44:00;;;;;;;7.10;3.72;;;;;;;;;;5110772;28;20048;-50
2023/10/25 06:46:27;;;;;;;7.15;3.78;;;;;;;;;;5112027;28;20474;-52
2023/10/25 06:48:56;;;;;;;6.60;3.85;;;;;;;;;;5112172;28;20438;-51
2023/10/25 06:51:25;;;;;;;8.77;4.00;;;;;;;;;;5113952;28;20088;-53
2023/10/25 06:53:52;;;;;;;7.05;3.60;;;;;;;;;;5109369;28;20079;-53
2023/10/25 06:56:19;;;;;;;7.25;3.65;;;;;;;;;;5111913;28;20079;-52
2023/10/25 06:58:46;;;;;;;7.45;4.00;;;;;;;;;;5112570;28;20385;-50
2023/10/25 07:01:17;;;;;;;6.95;4.28;;;;;;;;;;5104522;27;20131;-56
2023/10/25 07:03:46;;;;;;;7.82;4.55;;;;;;;;;;5110549;28;20036;-50
2023/10/25 07:06:16;;;;;;;7.32;3.78;;;;;;;;;;5103837;28;20135;-51
2023/10/25 07:08:45;;;;;;;5.93;3.35;;;;;;;;;;5105858;28;20050;-54
2023/10/25 07:11:12;;;;;;;7.93;4.60;;;;;;;;;;5106059;28;20079;-49
2023/10/25 07:13:38;;;;;;;6.07;3.42;;;;;;;;;;5097960;28;20478;-52
2023/10/25 07:16:06;;;;;;;8.25;4.40;;;;;;;;;;5104938;28;20075;-53
2023/10/25 07:18:34;;;;;;;6.10;3.40;;;;;;;;;;5098979;28;20486;-55
2023/10/25 07:21:00;;;;;;;6.88;3.97;;;;;;;;;;5108378;28;20463;-53
2023/10/25 07:23:27;;;;;;;6.93;4.00;;;;;;;;;;5110627;28;20050;-55
2023/10/25 07:25:55;;;;;;;7.10;4.10;;;;;;;;;;5112645;28;20043;-53
2023/10/25 07:28:22;;;;;;;8.40;4.28;;;;;;;;;;5111396;28;20096;-52
2023/10/25 07:30:49;;;;;;;7.35;3.97;;;;;;;;;;5104997;28;20126;-51
2023/10/25 07:33:17;;;;;;;7.85;3.92;;;;;;;;;;5112924;28;20044;-56
2023/10/25 07:35:44;;;;;;;6.78;3.70;;;;;;;;;;5113490;28;20084;-53
2023/10/25 07:38:11;;;;;;;6.20;3.33;;;;;;;;;;5112249;27;20467;-52
2023/10/25 07:40:39;;;;;;;6.57;3.53;;;;;;;;;;5105778;27;20127;-53
2023/10/25 07:43:08;;;;;;;6.85;3.78;;;;;;;;;;5104333;28;20047;-54
2023/10/25 07:45:34;;;;;;;4.95;3.08;;;;;;;;;;5106136;28;20044;-57
2023/10/25 07:48:01;;;;;;;5.65;3.20;;;;;;;;;;5109827;27;20047;-52
2023/10/25 07:50:28;;;;;;;5.25;2.50;;;;;;;;;;5112405;27;20135;-61
2023/10/25 07:52:54;;;;;;;4.93;2.50;;;;;;;;;;5106694;28;20074;-60
2023/10/25 07:55:21;;;;;;;4.40;2.97;;;;;;;;;;5110693;27;20087;-52
2023/10/25 07:57:48;;;;;;;5.25;2.45;;;;;;;;;;5119980;27;20067;-51
2023/10/25 08:00:16;;;;;;;5.03;2.67;;;;;;;;;;5110177;27;20101;-52
2023/10/25 08:02:43;;;;;;;5.38;2.80;;;;;;;;;;5111133;27;20051;-55
2023/10/25 08:05:10;;;;;;;6.82;2.83;;;;;;;;;;5109808;28;20173;-51
2023/10/25 08:07:37;;;;;;;5.75;2.25;;;;;;;;;;5111436;27;20071;-54
2023/10/25 08:10:06;;;;;;;6.45;2.10;;;;;;;;;;5110338;27;20514;-55
2023/10/25 08:12:35;;;;;;;2.97;1.55;;;;;;;;;;5108910;27;20064;-49
2023/10/25 08:15:02;;;;;;;4.65;2.55;;;;;;;;;;5112150;27;20414;-50
2023/10/25 08:17:30;;;;;;;4.40;2.35;;;;;;;;;;5109374;28;20517;-50
2023/10/25 08:19:57;;;;;;;5.35;3.05;;;;;;;;;;5111268;27;20139;-54
2023/10/25 08:22:24;;;;;;;4.50;2.42;;;;;;;;;;5105999;27;20044;-52
2023/10/25 08:24:51;;;;;;;5.75;2.88;;;;;;;;;;5108430;28;20122;-55
2023/10/25 08:27:18;;;;;;;4.57;2.42;;;;;;;;;;5103580;28;20052;-50
2023/10/25 08:29:45;;;;;;;5.85;2.50;;;;;;;;;;5109206;28;20534;-53
2023/10/25 08:32:12;;;;;;;4.38;2.20;;;;;;;;;;5107612;27;20072;-51
2023/10/25 08:34:45;;;;;;;6.43;2.45;;;;;;;;;;5113150;27;20047;-53
2023/10/25 08:37:11;;;;;;;3.45;1.90;;;;;;;;;;5105988;28;20705;-52
2023/10/25 08:39:38;;;;;;;2.97;1.70;;;;;;;;;;5109291;28;20043;-52
2023/10/25 08:42:07;;;;;;;5.43;2.00;;;;;;;;;;5108892;27;20130;-53
2023/10/25 08:44:39;;;;;;;6.22;3.38;;;;;;;;;;5108818;27;20130;-49
2023/10/25 08:47:06;;;;;;;4.13;2.20;;;;;;;;;;5105938;27;20051;-52
2023/10/25 08:49:32;;;;;;;5.28;2.60;;;;;;;;;;5108246;27;20047;-51
2023/10/25 08:52:02;;;;;;;4.30;2.50;;;;;;;;;;5107691;27;20143;-58
2023/10/25 08:54:29;;;;;;;4.35;2.40;;;;;;;;;;5108561;27;20082;-53
2023/10/25 08:56:56;;;;;;;4.90;2.50;;;;;;;;;;5111043;27;20079;-50
2023/10/25 08:59:23;;;;;;;32.67;14.50;;;;;;;;;;5109480;27;20040;-51
2023/10/25 09:01:49;;;;;;;18.50;8.25;;;;;;;;;;5107851;28;20487;-51
2023/10/25 09:04:16;;;;;;;8.38;3.35;;;;;;;;;;5103395;28;20075;-53
2023/10/25 09:06:43;;;;;;;4.55;2.22;;;;;;;;;;5108330;28;20492;-51
2023/10/25 09:09:11;;;;;;;3.55;1.85;;;;;;;;;;5108858;27;20122;-53
2023/10/25 09:11:39;;;;;;;5.03;2.45;;;;;;;;;;5108659;28;20135;-54
2023/10/25 09:14:06;;;;;;;5.38;2.00;;;;;;;;;;5109457;27;20051;-55
2023/10/25 09:16:33;;;;;;;3.80;2.30;;;;;;;;;;5108873;27;20055;-54
2023/10/25 09:19:03;;;;;;;4.28;2.40;;;;;;;;;;5108894;28;20075;-54
2023/10/25 09:21:30;;;;;;;3.88;2.00;;;;;;;;;;5111876;28;20058;-53
2023/10/25 09:23:59;;;;;;;4.30;2.05;;;;;;;;;;5100146;28;20088;-53
2023/10/25 09:26:34;;;;;;;5.28;2.20;;;;;;;;;;5109769;28;20093;-54
2023/10/25 09:29:01;;;;;;;5.07;1.60;;;;;;;;;;5105015;28;20133;-56
2023/10/25 09:31:31;;;;;;;5.47;1.48;;;;;;;;;;5107069;28;20043;-55
2023/10/25 09:33:58;;;;;;;3.85;1.77;;;;;;;;;;5103700;28;20134;-52
2023/10/25 09:36:25;;;;;;;2.30;1.02;;;;;;;;;;5105438;28;20131;-52
2023/10/25 09:38:53;;;;;;;2.25;1.15;;;;;;;;;;5105659;28;20420;-54
2023/10/25 09:41:21;;;;;;;2.35;0.90;;;;;;;;;;5098829;28;20078;-50
2023/10/25 09:43:51;;;;;;;2.42;0.98;;;;;;;;;;5107731;28;20725;-50
2023/10/25 09:46:18;;;;;;;1.58;0.82;;;;;;;;;;5108055;28;20071;-50
2023/10/25 09:48:55;;;;;;;2.97;0.77;;;;;;;;;;5107875;28;20048;-51
2023/10/25 09:51:42;;;;;;;1.27;0.55;;;;;;;;;;5104190;28;20048;-50
2023/10/25 09:54:11;;;;;;;1.15;0.50;;;;;;;;;;5104835;28;20102;-49
2023/10/25 09:56:38;;;;;;;2.63;0.93;;;;;;;;;;5106083;28;20691;-50
2023/10/25 09:59:08;;;;;;;1.45;0.68;;;;;;;;;;5094518;28;20051;-51
2023/10/25 10:01:35;;;;;;;2.30;0.77;;;;;;;;;;5105933;28;20138;-53
2023/10/25 10:04:12;;;;;;;1.90;0.88;;;;;;;;;;5108329;28;20131;-50
2023/10/25 10:06:45;;;;;;;1.40;0.57;;;;;;;;;;5104125;28;20071;-63
2023/10/25 10:09:20;;;;;;;2.83;0.80;;;;;;;;;;5102911;28;20078;-52
2023/10/25 10:11:50;;;;;;;3.58;0.88;;;;;;;;;;5105131;28;20071;-52
2023/10/25 10:14:32;;;;;;;1.45;0.63;;;;;;;;;;5100741;28;20051;-53
2023/10/25 10:17:09;;;;;;;2.38;0.90;;;;;;;;;;5111271;27;20131;-53
2023/10/25 10:19:39;;;;;;;3.85;0.80;;;;;;;;;;5100773;27;20725;-59
2023/10/25 10:22:07;;;;;;;1.70;0.60;;;;;;;;;;5102118;27;20044;-66
2023/10/25 10:24:45;;;;;;;4.75;2.30;;;;;;;;;;5103646;27;20048;-66
2023/10/25 10:27:13;;;;;;;5.47;1.27;;;;;;;;;;5104252;27;20041;-66
2023/10/25 10:29:45;;;;;;;4.57;1.52;;;;;;;;;;5101595;27;20102;-51
2023/10/25 10:32:12;;;;;;;13.80;5.00;;;;;;;;;;5104557;27;20035;-49
2023/10/25 10:34:41;;;;;;;15.48;5.00;;;;;;;;;;5103567;27;20039;-53
2023/10/25 10:37:09;;;;;;;12.32;3.65;;;;;;;;;;5112208;27;20050;-54
2023/10/25 10:39:37;;;;;;;20.00;6.40;;;;;;;;;;5109530;27;20118;-53
2023/10/25 10:42:05;;;;;;;23.02;5.63;;;;;;;;;;5112126;27;20490;-58
2023/10/25 10:44:35;;;;;;;9.23;2.78;;;;;;;;;;5111841;27;20134;-55
2023/10/25 10:47:07;;;;;;;13.88;3.88;;;;;;;;;;5110710;27;20052;-50
2023/10/25 10:49:36;;;;;;;7.93;2.45;;;;;;;;;;5110951;27;20094;-53
2023/10/25 10:52:03;;;;;;;11.00;3.50;;;;;;;;;;5099049;28;20082;-51
2023/10/25 10:54:30;;;;;;;2.78;0.90;;;;;;;;;;5098199;28;20651;-49
2023/10/25 10:56:57;;;;;;;2.10;0.68;;;;;;;;;;5111115;27;20131;-56
2023/10/25 10:59:24;;;;;;;13.75;4.57;;;;;;;;;;5110689;27;20135;-52
2023/10/25 11:01:51;;;;;;;6.05;1.95;;;;;;;;;;5106070;27;20044;-56
2023/10/25 11:04:19;;;;;;;4.28;0.90;;;;;;;;;;5110430;28;20089;-52
2023/10/25 11:06:46;;;;;;;6.25;2.10;;;;;;;;;;5100814;27;20046;-58
2023/10/25 11:09:13;;;;;;;4.95;1.92;;;;;;;;;;5103090;28;20503;-51
2023/10/25 11:11:39;;;;;;;2.88;0.90;;;;;;;;;;5105339;28;20078;-58
2023/10/25 11:14:06;;;;;;;6.40;2.50;;;;;;;;;;5110085;28;20138;-54
2023/10/25 11:16:33;;;;;;;8.13;2.58;;;;;;;;;;5102676;28;20168;-53
2023/10/25 11:19:09;;;;;;;6.55;1.67;;;;;;;;;;5102208;27;20044;-58
2023/10/25 11:21:37;;;;;;;5.90;1.63;;;;;;;;;;5105112;28;20071;-55
2023/10/25 11:24:07;;;;;;;8.68;2.65;;;;;;;;;;5103807;28;20157;-57
2023/10/25 11:26:40;;;;;;;4.85;1.38;;;;;;;;;;5106478;28;20433;-58
2023/10/25 11:29:07;;;;;;;4.88;1.23;;;;;;;;;;5104290;28;20074;-54
2023/10/25 11:31:34;;;;;;;8.77;2.85;;;;;;;;;;5110099;28;20544;-50
2023/10/25 11:34:01;;;;;;;6.70;1.92;;;;;;;;;;5108415;28;20048;-52
2023/10/25 11:36:30;;;;;;;5.45;2.45;;;;;;;;;;5108395;28;20039;-54
2023/10/25 11:39:05;;;;;;;3.83;1.95;;;;;;;;;;5109061;28;20510;-54
2023/10/25 11:41:32;;;;;;;3.90;1.85;;;;;;;;;;5099806;28;20451;-50
2023/10/25 11:44:00;;;;;;;6.00;2.00;;;;;;;;;;5104765;28;20048;-56
2023/10/25 11:46:33;;;;;;;6.30;1.85;;;;;;;;;;5100059;28;20750;-58
2023/10/25 11:49:00;;;;;;;5.90;2.47;;;;;;;;;;5104807;28;20102;-52
2023/10/25 11:51:27;;;;;;;3.75;1.85;;;;;;;;;;5106193;27;20135;-53
2023/10/25 11:53:54;;;;;;;7.00;1.92;;;;;;;;;;5102781;28;20096;-52
2023/10/25 11:56:24;;;;;;;5.90;2.10;;;;;;;;;;5107190;28;20056;-52
2023/10/25 11:58:50;;;;;;;4.20;1.55;;;;;;;;;;5103837;27;20044;-51
2023/10/25 12:01:17;;;;;;;6.00;2.03;;;;;;;;;;5103055;27;20039;-49
2023/10/25 12:03:44;;;;;;;4.00;1.40;;;;;;;;;;5104752;28;20070;-54
2023/10/25 12:06:11;;;;;;;2.60;1.00;;;;;;;;;;5105856;28;20580;-53
2023/10/25 12:08:39;;;;;;;6.93;2.60;;;;;;;;;;5110048;28;20131;-54
2023/10/25 12:11:06;;;;;;;5.13;1.90;;;;;;;;;;5107248;28;20044;-51
2023/10/25 12:13:35;;;;;;;2.72;1.08;;;;;;;;;;5108016;28;20122;-54
2023/10/25 12:16:01;;;;;;;4.28;1.50;;;;;;;;;;5108953;27;20491;-54
2023/10/25 12:18:28;;;;;;;5.55;2.00;;;;;;;;;;5104032;28;20054;-50
2023/10/25 12:20:55;;;;;;;2.40;1.20;;;;;;;;;;5108190;27;20047;-59
2023/10/25 12:23:21;;;;;;;4.05;1.60;;;;;;;;;;5104455;27;20054;-52
2023/10/25 12:25:48;;;;;;;4.22;1.40;;;;;;;;;;5108075;28;20541;-55
2023/10/25 12:28:15;;;;;;;3.53;1.60;;;;;;;;;;5101804;28;20043;-55
2023/10/25 12:30:43;;;;;;;5.10;1.20;;;;;;;;;;5105152;28;20059;-52
2023/10/25 12:33:09;;;;;;;4.60;1.65;;;;;;;;;;5106197;28;20655;-53
2023/10/25 12:35:36;;;;;;;3.20;1.23;;;;;;;;;;5102220;28;20047;-52
2023/10/25 12:38:03;;;;;;;5.55;1.80;;;;;;;;;;5105482;28;20130;-52
2023/10/25 12:40:30;;;;;;;3.47;1.10;;;;;;;;;;5103370;28;20040;-52
2023/10/25 12:42:56;;;;;;;3.60;1.15;;;;;;;;;;5104488;28;20087;-53
2023/10/25 12:45:23;;;;;;;3.35;1.20;;;;;;;;;;5107323;27;20122;-51
2023/10/25 12:47:51;;;;;;;3.63;1.73;;;;;;;;;;5108821;28;20055;-61
2023/10/25 12:50:18;;;;;;;2.58;1.10;;;;;;;;;;5109069;28;20139;-53
2023/10/25 12:52:44;;;;;;;3.45;1.08;;;;;;;;;;5110688;27;20568;-56
2023/10/25 12:55:12;;;;;;;3.03;1.13;;;;;;;;;;5101982;28;20040;-53
2023/10/25 12:57:39;;;;;;;1.58;0.80;;;;;;;;;;5103528;27;20039;-61
2023/10/25 13:00:08;;;;;;;1.98;0.80;;;;;;;;;;5109715;27;20066;-53
2023/10/25 13:02:35;;;;;;;2.65;1.10;;;;;;;;;;5110459;27;20104;-55
2023/10/25 13:05:04;;;;;;;2.95;0.80;;;;;;;;;;5103041;28;20471;-50
2023/10/25 13:07:31;;;;;;;2.50;0.93;;;;;;;;;;5105438;28;20067;-57
2023/10/25 13:09:58;;;;;;;3.08;0.95;;;;;;;;;;5111381;27;20043;-56
2023/10/25 13:12:25;;;;;;;5.05;1.13;;;;;;;;;;5106615;28;20078;-51
2023/10/25 13:14:51;;;;;;;2.65;1.00;;;;;;;;;;5108708;28;20086;-52
2023/10/25 13:17:18;;;;;;;2.72;1.20;;;;;;;;;;5101197;27;20136;-58
2023/10/25 13:19:44;;;;;;;2.15;0.82;;;;;;;;;;5107954;28;20581;-49
2023/10/25 13:22:14;;;;;;;1.33;0.73;;;;;;;;;;5105401;28;20079;-60
2023/10/25 13:24:40;;;;;;;2.60;0.85;;;;;;;;;;5104418;28;20071;-54
2023/10/25 13:27:07;;;;;;;2.83;0.70;;;;;;;;;;5110710;28;20047;-54
2023/10/25 13:29:33;;;;;;;1.92;0.90;;;;;;;;;;5104608;28;20051;-58
2023/10/25 13:32:00;;;;;;;2.67;0.75;;;;;;;;;;5104320;28;20066;-59
2023/10/25 13:34:27;;;;;;;3.00;0.70;;;;;;;;;;5105564;28;20047;-51
2023/10/25 13:36:54;;;;;;;2.72;1.02;;;;;;;;;;5103334;28;20051;-54
2023/10/25 13:39:22;;;;;;;2.15;0.70;;;;;;;;;;5103066;28;20040;-54
2023/10/25 13:41:48;;;;;;;1.65;0.80;;;;;;;;;;5106920;28;20131;-56
2023/10/25 13:44:15;;;;;;;2.38;0.85;;;;;;;;;;5102214;28;20079;-51
2023/10/25 13:46:42;;;;;;;1.80;0.63;;;;;;;;;;5105059;28;20051;-51
2023/10/25 13:49:09;;;;;;;2.20;0.73;;;;;;;;;;5104368;28;20055;-52
2023/10/25 13:51:40;;;;;;;1.30;0.73;;;;;;;;;;5109378;28;20583;-54
2023/10/25 13:54:07;;;;;;;2.05;0.70;;;;;;;;;;5107228;28;20052;-50
2023/10/25 13:56:35;;;;;;;2.67;0.88;;;;;;;;;;5112498;28;20523;-55
2023/10/25 13:59:02;;;;;;;0.93;0.65;;;;;;;;;;5112081;27;20051;-54
2023/10/25 14:01:29;;;;;;;2.95;1.00;;;;;;;;;;5112304;27;20588;-54
2023/10/25 14:03:55;;;;;;;1.13;0.60;;;;;;;;;;5109992;28;20052;-55
2023/10/25 14:06:22;;;;;;;2.47;0.70;;;;;;;;;;5108596;28;20514;-64
2023/10/25 14:08:49;;;;;;;1.77;0.80;;;;;;;;;;5109122;28;20128;-51
2023/10/25 14:11:15;;;;;;;3.90;0.90;;;;;;;;;;5110212;28;20130;-64
2023/10/25 14:13:44;;;;;;;2.05;1.02;;;;;;;;;;5112085;28;20123;-52
2023/10/25 14:16:11;;;;;;;2.25;0.80;;;;;;;;;;5108833;28;20419;-59
2023/10/25 14:18:38;;;;;;;2.78;1.23;;;;;;;;;;5106384;27;20043;-52
2023/10/25 14:21:09;;;;;;;2.58;1.05;;;;;;;;;;5110094;27;20469;-55
2023/10/25 14:23:36;;;;;;;1.65;0.80;;;;;;;;;;5107953;27;20055;-51
2023/10/25 14:26:04;;;;;;;1.92;1.00;;;;;;;;;;5110219;28;20040;-53
2023/10/25 14:28:30;;;;;;;2.40;1.13;;;;;;;;;;5111345;27;20062;-57
2023/10/25 14:30:58;;;;;;;2.72;1.20;;;;;;;;;;5113369;27;20484;-53
2023/10/25 14:33:25;;;;;;;2.20;0.90;;;;;;;;;;5112155;27;20123;-55
2023/10/25 14:35:52;;;;;;;2.50;1.00;;;;;;;;;;5107482;28;20051;-52
2023/10/25 14:38:21;;;;;;;2.40;1.05;;;;;;;;;;5109087;28;20131;-55
2023/10/25 14:40:47;;;;;;;3.08;1.40;;;;;;;;;;5110930;28;20055;-56
2023/10/25 14:43:14;;;;;;;2.33;1.02;;;;;;;;;;5111438;28;20051;-50
2023/10/25 14:45:41;;;;;;;2.50;0.85;;;;;;;;;;5111427;28;20119;-52